createdAt,value
2018-06-18T00:01:13.040Z,4.93
2018-06-18T00:03:41.098Z,5.27
2018-06-18T00:06:09.193Z,5.57
2018-06-18T00:08:37.251Z,4.50
2018-06-18T00:11:05.324Z,5.80
2018-06-18T00:13:33.376Z,5.13
2018-06-18T00:16:01.449Z,4.50
2018-06-18T00:18:29.518Z,5.40
2018-06-18T00:20:57.580Z,5.83
2018-06-18T00:23:25.431Z,5.30
2018-06-18T00:25:53.496Z,4.97
2018-06-18T00:28:21.608Z,5.40
2018-06-18T00:30:49.708Z,5.80
2018-06-18T00:33:17.861Z,6.13
2018-06-18T00:35:45.976Z,5.70
2018-06-18T00:38:14.105Z,6.47
2018-06-18T00:40:42.174Z,6.70
2018-06-18T00:43:10.396Z,7.50
2018-06-18T00:45:38.452Z,8.03
2018-06-18T00:48:06.513Z,9.53
2018-06-18T00:50:34.584Z,10.43
2018-06-18T00:53:02.652Z,11.33
2018-06-18T00:55:42.194Z,10.93
2018-06-18T00:58:10.253Z,10.93
2018-06-18T01:00:38.315Z,12.80
2018-06-18T01:03:06.402Z,12.57
2018-06-18T01:05:34.477Z,11.37
2018-06-18T01:08:02.559Z,11.97
2018-06-18T01:10:30.625Z,12.27
2018-06-18T01:12:58.720Z,12.47
2018-06-18T01:15:26.959Z,13.77
2018-06-18T01:17:55.050Z,17.10
2018-06-18T01:20:23.341Z,17.57
2018-06-18T01:22:58.833Z,20.57
2018-06-18T01:25:26.923Z,22.17
2018-06-18T01:27:55.000Z,21.80
2018-06-18T01:30:23.092Z,22.30
2018-06-18T01:32:50.952Z,22.30
2018-06-18T01:35:19.084Z,23.70
2018-06-18T01:37:47.169Z,23.00
2018-06-18T01:40:15.270Z,24.00
2018-06-18T01:42:43.374Z,26.90
2018-06-18T01:45:11.444Z,26.40
2018-06-18T01:47:39.572Z,28.20
2018-06-18T01:50:07.360Z,29.93
2018-06-18T01:52:35.479Z,30.37
2018-06-18T01:55:03.571Z,32.63
2018-06-18T01:57:31.644Z,31.20
2018-06-18T01:59:59.733Z,33.93
2018-06-18T02:02:27.792Z,34.30
2018-06-18T02:04:55.860Z,49.87
2018-06-18T02:07:23.935Z,40.47
2018-06-18T02:09:52.017Z,38.87
2018-06-18T02:12:20.080Z,50.27
2018-06-18T02:14:48.224Z,39.83
2018-06-18T02:17:16.343Z,44.47
2018-06-18T02:19:44.493Z,35.50
2018-06-18T02:22:12.580Z,37.07
2018-06-18T02:24:40.688Z,40.83
2018-06-18T02:27:14.802Z,37.73
2018-06-18T02:29:48.541Z,33.27
2018-06-18T02:33:20.957Z,30.77
2018-06-18T02:35:54.520Z,29.30
2018-06-18T02:38:28.004Z,23.73
2018-06-18T02:40:56.165Z,22.93
2018-06-18T02:43:24.256Z,19.93
2018-06-18T02:45:52.440Z,19.47
2018-06-18T02:48:20.509Z,18.80
2018-06-18T02:50:48.763Z,16.60
2018-06-18T02:53:16.907Z,15.30
2018-06-18T02:55:46.880Z,14.00
2018-06-18T02:58:14.969Z,11.97
2018-06-18T03:00:43.096Z,12.10
2018-06-18T03:03:11.169Z,9.47
2018-06-18T03:05:39.340Z,8.67
2018-06-18T03:08:07.424Z,7.60
2018-06-18T03:10:35.543Z,7.00
2018-06-18T03:13:03.478Z,6.30
2018-06-18T03:15:31.587Z,5.70
2018-06-18T03:17:59.660Z,6.53
2018-06-18T03:20:33.216Z,5.10
2018-06-18T03:23:06.727Z,4.50
2018-06-18T03:25:40.370Z,4.60
2018-06-18T03:28:13.896Z,3.70
2018-06-18T03:30:41.961Z,3.80
2018-06-18T03:33:10.060Z,3.10
2018-06-18T03:35:38.252Z,3.30
2018-06-18T03:38:06.426Z,3.43
2018-06-18T03:40:34.545Z,3.07
2018-06-18T03:43:02.637Z,2.50
2018-06-18T03:45:32.280Z,3.43
2018-06-18T03:48:03.852Z,3.97
2018-06-18T03:50:31.896Z,3.53
2018-06-18T03:52:59.967Z,3.67
2018-06-18T03:55:30.180Z,3.47
2018-06-18T03:57:58.296Z,3.03
2018-06-18T04:00:28.164Z,3.43
2018-06-18T04:03:02.953Z,3.63
2018-06-18T04:05:36.585Z,3.17
2018-06-18T04:08:09.316Z,2.70
2018-06-18T04:10:42.913Z,3.67
2018-06-18T04:13:10.975Z,2.97
2018-06-18T04:15:39.073Z,2.90
2018-06-18T04:18:07.162Z,2.60
2018-06-18T04:20:47.801Z,3.63
2018-06-18T04:23:15.907Z,2.13
2018-06-18T04:25:44.305Z,2.70
2018-06-18T04:28:12.557Z,4.00
2018-06-18T04:30:41.455Z,3.07
2018-06-18T04:33:10.064Z,3.33
2018-06-18T04:35:38.176Z,4.00
2018-06-18T04:38:06.333Z,3.73
2018-06-18T04:40:34.376Z,3.20
2018-06-18T04:43:07.927Z,4.53
2018-06-18T04:45:43.388Z,2.83
2018-06-18T04:48:17.236Z,3.43
2018-06-18T04:50:51.051Z,4.37
2018-06-18T04:53:19.369Z,4.43
2018-06-18T04:55:47.640Z,4.53
2018-06-18T04:58:15.910Z,3.53
2018-06-18T05:00:53.217Z,4.47
2018-06-18T05:03:21.382Z,4.90
2018-06-18T05:05:49.548Z,5.27
2018-06-18T05:10:27.177Z,4.50
2018-06-18T05:12:55.500Z,4.33
2018-06-18T05:15:29.524Z,3.73
2018-06-18T05:17:57.608Z,4.17
2018-06-18T05:20:25.718Z,3.40
2018-06-18T05:22:53.766Z,3.93
2018-06-18T05:25:22.103Z,4.77
2018-06-18T05:27:50.213Z,3.53
2018-06-18T05:30:21.280Z,5.23
2018-06-18T05:32:49.984Z,4.60
2018-06-18T05:35:18.171Z,3.53
2018-06-18T05:37:59.668Z,3.47
2018-06-18T05:40:27.745Z,5.13
2018-06-18T05:42:55.850Z,6.50
2018-06-18T05:45:23.902Z,6.40
2018-06-18T05:47:52.037Z,3.80
2018-06-18T05:50:20.141Z,6.53
2018-06-18T05:52:48.247Z,5.00
2018-06-18T05:55:16.375Z,4.60
2018-06-18T05:57:44.460Z,4.60
2018-06-18T06:00:13.468Z,4.97
2018-06-18T06:02:41.565Z,4.23
2018-06-18T06:05:09.681Z,4.43
2018-06-18T06:07:37.773Z,7.07
2018-06-18T06:10:05.905Z,4.73
2018-06-18T06:12:34.128Z,4.63
2018-06-18T06:15:02.232Z,6.17
2018-06-18T06:17:30.409Z,3.40
2018-06-18T06:19:58.466Z,5.23
2018-06-18T06:22:26.567Z,5.17
2018-06-18T06:24:54.693Z,3.67
2018-06-18T06:27:22.835Z,4.40
2018-06-18T06:29:50.964Z,4.10
2018-06-18T06:32:19.086Z,4.40
2018-06-18T06:34:51.046Z,4.97
2018-06-18T06:37:19.153Z,4.07
2018-06-18T06:39:47.299Z,5.50
2018-06-18T06:42:16.505Z,4.43
2018-06-18T06:44:44.602Z,3.80
2018-06-18T06:47:12.920Z,4.43
2018-06-18T06:49:41.064Z,3.40
2018-06-18T06:52:09.122Z,4.77
2018-06-18T06:54:37.233Z,2.80
2018-06-18T06:57:05.323Z,5.73
2018-06-18T06:59:33.403Z,3.73
2018-06-18T07:02:01.489Z,4.63
2018-06-18T07:04:29.556Z,4.17
2018-06-18T07:06:57.619Z,3.90
2018-06-18T07:09:25.692Z,3.67
2018-06-18T07:11:53.768Z,4.33
2018-06-18T07:14:21.905Z,5.87
2018-06-18T07:16:50.005Z,4.83
2018-06-18T07:19:18.103Z,6.27
2018-06-18T07:21:46.272Z,5.63
2018-06-18T07:24:14.350Z,5.40
2018-06-18T07:26:42.521Z,4.93
2018-06-18T07:29:10.581Z,4.07
2018-06-18T07:31:38.651Z,6.90
2018-06-18T07:34:06.728Z,4.03
2018-06-18T07:36:34.813Z,4.67
2018-06-18T07:39:02.984Z,4.70
2018-06-18T07:41:31.125Z,4.57
2018-06-18T07:43:59.316Z,5.87
2018-06-18T07:46:27.386Z,5.10
2018-06-18T07:48:55.452Z,4.87
2018-06-18T07:51:23.689Z,5.30
2018-06-18T07:53:51.760Z,5.03
2018-06-18T07:56:19.952Z,5.97
2018-06-18T07:58:47.889Z,5.10
2018-06-18T08:01:16.004Z,5.20
2018-06-18T08:03:44.106Z,4.93
2018-06-18T08:06:12.248Z,5.40
2018-06-18T08:08:40.321Z,7.63
2018-06-18T08:11:08.377Z,3.40
2018-06-18T08:13:36.574Z,4.37
2018-06-18T08:16:04.628Z,4.47
2018-06-18T08:18:32.757Z,3.20
2018-06-18T08:21:00.864Z,4.40
2018-06-18T08:23:28.952Z,5.87
2018-06-18T08:25:57.032Z,4.30
2018-06-18T08:28:25.113Z,5.10
2018-06-18T08:30:53.161Z,4.43
2018-06-18T08:33:21.245Z,4.20
2018-06-18T08:35:49.335Z,5.00
2018-06-18T08:38:17.420Z,5.33
2018-06-18T08:40:45.650Z,6.47
2018-06-18T08:43:13.773Z,5.20
2018-06-18T08:45:41.960Z,3.73
2018-06-18T08:48:10.304Z,5.27
2018-06-18T08:51:45.770Z,4.03
2018-06-18T08:54:19.535Z,5.37
2018-06-18T08:56:53.069Z,4.13
2018-06-18T08:59:26.652Z,5.90
2018-06-18T09:01:54.808Z,4.30
2018-06-18T09:04:28.339Z,5.63
2018-06-18T09:07:00.653Z,4.93
2018-06-18T09:09:28.852Z,4.57
2018-06-18T09:11:56.958Z,5.80
2018-06-18T09:14:25.080Z,5.40
2018-06-18T09:16:53.212Z,4.03
2018-06-18T09:19:21.337Z,4.40
2018-06-18T09:21:49.487Z,4.47
2018-06-18T09:24:17.701Z,6.60
2018-06-18T09:26:45.856Z,6.00
2018-06-18T09:29:13.931Z,4.50
2018-06-18T09:31:51.514Z,5.37
2018-06-18T09:34:19.620Z,4.73
2018-06-18T09:36:47.741Z,4.60
2018-06-18T09:39:15.827Z,4.57
2018-06-18T09:41:43.949Z,2.80
2018-06-18T09:44:12.105Z,4.40
2018-06-18T09:46:40.164Z,5.93
2018-06-18T09:49:13.767Z,4.70
2018-06-18T09:51:47.396Z,6.97
2018-06-18T09:54:20.972Z,9.17
2018-06-18T09:56:54.589Z,6.90
2018-06-18T09:59:38.552Z,7.13
2018-06-18T10:02:06.832Z,5.63
2018-06-18T10:04:34.905Z,5.50
2018-06-18T10:07:03.007Z,5.10
2018-06-18T10:09:31.065Z,6.43
2018-06-18T10:11:59.126Z,9.23
2018-06-18T10:14:27.232Z,7.77
2018-06-18T10:16:55.304Z,6.17
2018-06-18T10:19:23.445Z,5.63
2018-06-18T10:21:51.557Z,6.70
2018-06-18T10:24:19.746Z,5.17
2018-06-18T10:26:47.926Z,7.80
2018-06-18T10:29:16.050Z,8.43
2018-06-18T10:31:44.176Z,6.43
2018-06-18T10:34:17.707Z,6.13
2018-06-18T10:36:51.340Z,4.83
2018-06-18T10:39:24.820Z,5.20
2018-06-18T10:41:58.337Z,5.60
2018-06-18T10:44:26.518Z,5.40
2018-06-18T10:46:54.561Z,5.03
2018-06-18T10:49:22.752Z,5.57
2018-06-18T10:51:50.797Z,5.10
2018-06-18T10:54:18.884Z,4.00
2018-06-18T10:56:46.952Z,4.73
2018-06-18T10:59:15.044Z,4.27
2018-06-18T11:01:43.541Z,4.63
2018-06-18T11:05:15.876Z,4.83
2018-06-18T11:07:43.953Z,3.67
2018-06-18T11:10:12.134Z,5.17
2018-06-18T11:12:40.292Z,4.97
2018-06-18T11:15:08.417Z,4.93
2018-06-18T11:17:41.958Z,3.07
2018-06-18T11:21:14.373Z,5.20
2018-06-18T11:23:48.024Z,3.23
2018-06-18T11:26:21.751Z,3.10
2018-06-18T11:28:49.864Z,4.23
2018-06-18T11:31:18.153Z,2.40
2018-06-18T11:33:46.224Z,2.73
2018-06-18T11:36:14.327Z,2.97
2018-06-18T11:38:42.396Z,3.63
2018-06-18T11:41:10.466Z,3.20
2018-06-18T11:43:38.535Z,2.80
2018-06-18T11:46:06.621Z,2.97
2018-06-18T11:48:34.767Z,4.07
2018-06-18T11:51:02.824Z,2.97
2018-06-18T11:53:30.936Z,3.43
2018-06-18T11:55:59.193Z,3.60
2018-06-18T11:58:32.619Z,4.20
2018-06-18T12:01:06.160Z,2.27
2018-06-18T12:03:39.640Z,3.60
2018-06-18T12:06:19.128Z,3.63
2018-06-18T12:08:52.835Z,2.90
2018-06-18T12:11:20.963Z,2.60
2018-06-18T12:13:49.227Z,2.47
2018-06-18T12:16:17.383Z,4.03
2018-06-18T12:18:45.488Z,2.50
2018-06-18T12:21:13.659Z,2.63
2018-06-18T12:23:41.785Z,3.50
2018-06-18T12:26:09.852Z,2.43
2018-06-18T12:28:37.927Z,3.27
2018-06-18T12:31:05.980Z,2.00
2018-06-18T12:33:34.059Z,2.93
2018-06-18T12:36:02.209Z,3.00
2018-06-18T12:38:30.275Z,3.00
2018-06-18T12:40:58.336Z,2.17
2018-06-18T12:43:28.428Z,4.87
2018-06-18T12:46:01.986Z,2.33
2018-06-18T12:48:35.471Z,2.33
2018-06-18T12:51:09.001Z,2.37
2018-06-18T12:53:42.749Z,2.33
2018-06-18T12:56:16.438Z,1.90
2018-06-18T12:58:44.728Z,1.97
2018-06-18T13:01:14.674Z,3.37
2018-06-18T13:03:42.807Z,1.83
2018-06-18T13:06:10.956Z,2.47
2018-06-18T13:08:39.348Z,2.53
2018-06-18T13:11:07.412Z,3.17
2018-06-18T13:13:35.504Z,2.20
2018-06-18T13:16:03.712Z,2.07
2018-06-18T13:18:31.788Z,3.33
2018-06-18T13:20:59.943Z,1.97
2018-06-18T13:23:28.031Z,3.17
2018-06-18T13:25:56.317Z,2.10
2018-06-18T13:28:24.429Z,2.30
2018-06-18T13:30:52.438Z,1.63
2018-06-18T13:33:20.523Z,2.33
2018-06-18T13:35:48.638Z,3.40
2018-06-18T13:38:22.352Z,2.57
2018-06-18T13:40:56.125Z,2.87
2018-06-18T13:43:29.621Z,3.43
2018-06-18T13:46:03.063Z,4.30
2018-06-18T13:48:36.725Z,2.57
2018-06-18T13:51:04.773Z,2.40
2018-06-18T13:53:32.832Z,2.67
2018-06-18T13:56:00.881Z,3.30
2018-06-18T13:58:29.031Z,2.20
2018-06-18T14:00:57.148Z,2.73
2018-06-18T14:03:25.259Z,2.77
2018-06-18T14:05:53.340Z,2.50
2018-06-18T14:08:21.464Z,2.80
2018-06-18T14:10:50.098Z,3.57
2018-06-18T14:13:18.229Z,3.30
2018-06-18T14:15:46.475Z,2.67
2018-06-18T14:18:14.576Z,4.10
2018-06-18T14:20:42.681Z,4.47
2018-06-18T14:23:10.784Z,2.10
2018-06-18T14:25:38.868Z,2.73
2018-06-18T14:28:07.001Z,3.70
2018-06-18T14:30:40.658Z,3.30
2018-06-18T14:33:14.330Z,4.23
2018-06-18T14:35:47.881Z,2.77
2018-06-18T14:38:21.362Z,3.30
2018-06-18T14:40:49.682Z,3.23
2018-06-18T14:43:17.936Z,2.73
2018-06-18T14:45:45.881Z,3.57
2018-06-18T14:48:14.024Z,2.67
2018-06-18T14:50:42.154Z,4.03
2018-06-18T14:53:10.313Z,3.93
2018-06-18T14:55:38.389Z,3.00
2018-06-18T14:58:06.440Z,4.37
2018-06-18T15:00:35.208Z,4.20
2018-06-18T15:03:03.252Z,3.63
2018-06-18T15:05:38.680Z,3.90
2018-06-18T15:08:06.736Z,3.00
2018-06-18T15:10:40.412Z,4.00
2018-06-18T15:13:10.582Z,4.13
2018-06-18T15:15:44.234Z,4.57
2018-06-18T15:18:12.389Z,2.70
2018-06-18T15:20:40.690Z,4.23
2018-06-18T15:23:15.896Z,4.27
2018-06-18T15:25:46.073Z,3.27
2018-06-18T15:28:14.187Z,4.57
2018-06-18T15:30:42.331Z,3.73
2018-06-18T15:33:10.446Z,5.10
2018-06-18T15:35:38.573Z,3.37
2018-06-18T15:38:06.725Z,4.27
2018-06-18T15:40:34.798Z,3.40
2018-06-18T15:43:02.887Z,4.33
2018-06-18T15:45:30.997Z,3.47
2018-06-18T15:47:59.093Z,3.63
2018-06-18T15:50:27.173Z,4.17
2018-06-18T15:52:55.235Z,3.80
2018-06-18T15:55:23.375Z,4.37
2018-06-18T15:57:51.575Z,4.60
2018-06-18T16:00:19.782Z,3.13
2018-06-18T16:02:47.880Z,5.00
2018-06-18T16:05:16.147Z,5.00
2018-06-18T16:07:44.297Z,3.63
2018-06-18T16:10:12.428Z,3.63
2018-06-18T16:12:40.255Z,5.00
2018-06-18T16:15:08.318Z,3.63
2018-06-18T16:17:36.388Z,3.70
2018-06-18T16:20:04.456Z,4.00
2018-06-18T16:22:32.540Z,4.03
2018-06-18T16:25:00.620Z,4.10
2018-06-18T16:27:28.750Z,4.70
2018-06-18T16:29:56.828Z,3.30
2018-06-18T16:32:24.941Z,3.23
2018-06-18T16:34:53.000Z,3.23
2018-06-18T16:37:21.080Z,3.97
2018-06-18T16:39:49.188Z,3.10
2018-06-18T16:42:17.319Z,3.47
2018-06-18T16:44:45.479Z,3.80
2018-06-18T16:47:13.601Z,3.20
2018-06-18T16:49:41.823Z,3.43
2018-06-18T16:52:09.884Z,5.27
2018-06-18T16:54:38.050Z,3.33
2018-06-18T16:57:06.096Z,3.77
2018-06-18T16:59:34.360Z,2.63
2018-06-18T17:02:02.423Z,3.37
2018-06-18T17:04:30.724Z,2.87
2018-06-18T17:06:58.789Z,5.03
2018-06-18T17:09:26.913Z,2.57
2018-06-18T17:11:54.980Z,3.53
2018-06-18T17:14:23.047Z,2.57
2018-06-18T17:16:51.133Z,3.87
2018-06-18T17:19:19.426Z,3.00
2018-06-18T17:21:47.516Z,3.17
2018-06-18T17:24:15.624Z,2.77
2018-06-18T17:26:43.759Z,3.33
2018-06-18T17:29:12.285Z,3.07
2018-06-18T17:31:40.349Z,4.90
2018-06-18T17:34:08.404Z,3.53
2018-06-18T17:36:36.546Z,5.53
2018-06-18T17:39:07.936Z,4.20
2018-06-18T17:41:35.877Z,2.93
2018-06-18T17:44:03.964Z,5.07
2018-06-18T17:46:32.105Z,4.10
2018-06-18T17:49:00.209Z,3.83
2018-06-18T17:51:28.280Z,3.67
2018-06-18T17:53:56.414Z,4.70
2018-06-18T17:56:24.444Z,4.50
2018-06-18T17:58:52.725Z,3.00
2018-06-18T18:01:20.829Z,3.17
2018-06-18T18:03:48.928Z,4.33
2018-06-18T18:06:17.063Z,4.13
2018-06-18T18:08:45.332Z,4.10
2018-06-18T18:11:13.443Z,4.00
2018-06-18T18:13:41.528Z,3.30
2018-06-18T18:16:09.569Z,3.87
2018-06-18T18:18:37.728Z,4.40
2018-06-18T18:21:05.806Z,4.27
2018-06-18T18:23:34.141Z,5.10
2018-06-18T18:26:02.208Z,2.80
2018-06-18T18:28:30.276Z,6.17
2018-06-18T18:30:58.521Z,3.70
2018-06-18T18:33:26.581Z,3.77
2018-06-18T18:35:54.735Z,3.90
2018-06-18T18:38:22.809Z,3.40
2018-06-18T18:40:50.876Z,3.93
2018-06-18T18:43:19.087Z,4.27
2018-06-18T18:45:47.277Z,3.20
2018-06-18T18:48:15.418Z,5.43
2018-06-18T18:50:43.511Z,3.53
2018-06-18T18:53:11.691Z,4.67
2018-06-18T18:55:52.969Z,3.30
2018-06-18T18:59:31.956Z,4.00
2018-06-18T19:02:00.374Z,5.47
2018-06-18T19:04:32.792Z,3.00
2018-06-18T19:07:01.329Z,3.93
2018-06-18T19:09:32.916Z,3.00
2018-06-18T19:12:00.914Z,3.30
2018-06-18T19:14:28.941Z,3.13
2018-06-18T19:16:57.109Z,2.97
2018-06-18T19:19:28.392Z,2.80
2018-06-18T19:21:56.468Z,3.10
2018-06-18T19:24:24.525Z,3.00
2018-06-18T19:26:52.588Z,2.40
2018-06-18T19:29:20.701Z,2.80
2018-06-18T19:31:48.780Z,2.60
2018-06-18T19:34:20.584Z,2.70
2018-06-18T19:36:51.425Z,3.30
2018-06-18T19:39:20.037Z,3.80
2018-06-18T19:41:48.113Z,5.87
2018-06-18T19:44:16.252Z,3.50
2018-06-18T19:47:25.011Z,2.77
2018-06-18T19:49:53.217Z,2.90
2018-06-18T19:52:21.268Z,2.40
2018-06-18T19:54:51.986Z,3.33
2018-06-18T19:57:20.151Z,2.40
2018-06-18T19:59:48.234Z,3.33
2018-06-18T20:02:16.462Z,2.70
2018-06-18T20:04:45.097Z,3.03
2018-06-18T20:07:13.257Z,2.70
2018-06-18T20:09:41.339Z,2.67
2018-06-18T20:12:09.398Z,3.47
2018-06-18T20:14:37.481Z,2.53
2018-06-18T20:17:05.640Z,3.10
2018-06-18T20:19:33.588Z,2.90
2018-06-18T20:22:01.653Z,2.63
2018-06-18T20:24:29.827Z,2.73
2018-06-18T20:26:57.872Z,2.70
2018-06-18T20:29:25.932Z,2.70
2018-06-18T20:31:54.119Z,3.00
2018-06-18T20:34:22.219Z,2.87
2018-06-18T20:36:50.321Z,2.73
2018-06-18T20:39:18.467Z,2.60
2018-06-18T20:41:46.565Z,2.90
2018-06-18T20:44:19.797Z,3.13
2018-06-18T20:46:47.896Z,2.73
2018-06-18T20:49:16.052Z,2.90
2018-06-18T20:51:44.693Z,2.80
2018-06-18T20:54:13.293Z,3.00
2018-06-18T20:56:41.624Z,3.17
2018-06-18T20:59:11.313Z,3.07
2018-06-18T21:01:39.425Z,2.90
2018-06-18T21:04:07.888Z,2.50
2018-06-18T21:06:36.212Z,3.30
2018-06-18T21:09:07.397Z,3.10
2018-06-18T21:11:35.412Z,2.77
2018-06-18T21:14:03.280Z,3.10
2018-06-18T21:16:31.340Z,4.03
2018-06-18T21:18:59.203Z,2.63
2018-06-18T21:21:27.282Z,3.03
2018-06-18T21:23:55.354Z,3.30
2018-06-18T21:26:23.424Z,2.80
2018-06-18T21:28:51.481Z,2.97
2018-06-18T21:31:19.561Z,3.40
2018-06-18T21:33:47.649Z,3.67
2018-06-18T21:36:15.748Z,3.43
2018-06-18T21:38:43.836Z,3.30
2018-06-18T21:41:11.992Z,3.50
2018-06-18T21:43:40.148Z,3.40
2018-06-18T21:46:08.460Z,3.00
2018-06-18T21:48:36.645Z,3.30
2018-06-18T21:51:04.693Z,3.60
2018-06-18T21:53:32.764Z,3.07
2018-06-18T21:56:01.168Z,3.70
2018-06-18T21:58:29.288Z,3.13
2018-06-18T22:00:57.365Z,3.30
2018-06-18T22:03:25.472Z,3.10
2018-06-18T22:05:53.567Z,3.37
2018-06-18T22:08:22.948Z,3.30
2018-06-18T22:10:51.045Z,4.37
2018-06-18T22:13:19.149Z,2.93
2018-06-18T22:15:47.245Z,3.53
2018-06-18T22:18:15.330Z,3.13
2018-06-18T22:20:43.746Z,3.03
2018-06-18T22:23:11.835Z,3.57
2018-06-18T22:25:39.910Z,3.50
2018-06-18T22:28:12.354Z,3.37
2018-06-18T22:30:40.428Z,4.10
2018-06-18T22:33:08.491Z,3.70
2018-06-18T22:35:36.556Z,3.33
2018-06-18T22:38:04.624Z,3.10
2018-06-18T22:40:32.682Z,3.67
2018-06-18T22:43:00.612Z,3.83
2018-06-18T22:45:28.668Z,3.37
2018-06-18T22:47:56.746Z,3.40
2018-06-18T22:50:24.612Z,5.27
2018-06-18T22:52:52.551Z,3.93
2018-06-18T22:55:20.621Z,3.87
2018-06-18T22:57:48.696Z,5.53
2018-06-18T23:00:16.865Z,3.60
2018-06-18T23:02:44.789Z,4.23
2018-06-18T23:05:13.013Z,3.93
2018-06-18T23:07:41.080Z,6.13
2018-06-18T23:10:08.936Z,4.80
2018-06-18T23:12:40.033Z,3.97
2018-06-18T23:15:09.532Z,4.60
2018-06-18T23:17:37.597Z,5.13
2018-06-18T23:20:05.645Z,4.37
2018-06-18T23:22:33.733Z,3.87
2018-06-18T23:25:01.840Z,3.50
2018-06-18T23:27:29.892Z,4.80
2018-06-18T23:29:57.960Z,5.90
2018-06-18T23:32:26.004Z,6.03
2018-06-18T23:34:54.062Z,4.73
2018-06-18T23:37:22.189Z,3.97
2018-06-18T23:39:50.248Z,4.57
2018-06-18T23:42:18.525Z,4.33
2018-06-18T23:44:46.690Z,5.03
2018-06-18T23:47:14.844Z,3.40
2018-06-18T23:49:42.925Z,5.23
2018-06-18T23:52:11.064Z,3.97
2018-06-18T23:54:39.121Z,4.47
2018-06-18T23:57:07.172Z,5.30
2018-06-18T23:59:35.108Z,5.57
